sensor_id;sensor_type;location;lat;lon;timestamp;pressure;altitude;pressure_sealevel;temperature;humidity
35888;BME280;21990;42.540;23.496;2023-04-25T00:00:40;92823.44;;;10.61;97.39
35888;BME280;21990;42.540;23.496;2023-04-25T00:03:05;92815.69;;;10.54;98.38
35888;BME280;21990;42.540;23.496;2023-04-25T00:05:31;92821.22;;;10.67;99.04
35888;BME280;21990;42.540;23.496;2023-04-25T00:08:21;92821.28;;;10.75;98.23
35888;BME280;21990;42.540;23.496;2023-04-25T00:11:42;92816.16;;;10.66;99.99
35888;BME280;21990;42.540;23.496;2023-04-25T00:14:55;92805.44;;;10.43;99.49
35888;BME280;21990;42.540;23.496;2023-04-25T00:17:59;92807.56;;;10.51;100.00
35888;BME280;21990;42.540;23.496;2023-04-25T00:51:19;92753.13;;;10.76;97.54
35888;BME280;21990;42.540;23.496;2023-04-25T00:53:58;92742.66;;;10.84;97.53
35888;BME280;21990;42.540;23.496;2023-04-25T00:56:28;92738.91;;;10.89;96.78
35888;BME280;21990;42.540;23.496;2023-04-25T00:58:54;92742.13;;;10.93;96.78
35888;BME280;21990;42.540;23.496;2023-04-25T01:01:21;92738.22;;;10.97;96.35
35888;BME280;21990;42.540;23.496;2023-04-25T01:03:47;92732.22;;;10.72;95.66
35888;BME280;21990;42.540;23.496;2023-04-25T01:06:16;92731.06;;;10.67;96.74
35888;BME280;21990;42.540;23.496;2023-04-25T01:08:44;92724.56;;;10.80;96.29
35888;BME280;21990;42.540;23.496;2023-04-25T01:11:10;92719.66;;;10.73;95.93
35888;BME280;21990;42.540;23.496;2023-04-25T01:13:35;92718.91;;;10.72;96.45
35888;BME280;21990;42.540;23.496;2023-04-25T01:16:02;92717.78;;;10.75;96.04
35888;BME280;21990;42.540;23.496;2023-04-25T01:18:28;92714.44;;;10.77;95.85
35888;BME280;21990;42.540;23.496;2023-04-25T01:20:54;92708.97;;;10.79;95.78
35888;BME280;21990;42.540;23.496;2023-04-25T01:23:21;92706.28;;;10.66;96.08
35888;BME280;21990;42.540;23.496;2023-04-25T01:25:47;92704.88;;;10.52;96.27
35888;BME280;21990;42.540;23.496;2023-04-25T01:28:13;92700.84;;;10.39;96.61
35888;BME280;21990;42.540;23.496;2023-04-25T01:30:39;92690.16;;;10.38;96.61
35888;BME280;21990;42.540;23.496;2023-04-25T01:33:04;92711.28;;;10.31;97.81
35888;BME280;21990;42.540;23.496;2023-04-25T01:35:30;92706.13;;;10.43;97.14
35888;BME280;21990;42.540;23.496;2023-04-25T01:37:57;92703.13;;;10.41;97.06
35888;BME280;21990;42.540;23.496;2023-04-25T01:40:23;92699.03;;;10.50;96.80
35888;BME280;21990;42.540;23.496;2023-04-25T01:42:49;92706.38;;;10.53;96.99
35888;BME280;21990;42.540;23.496;2023-04-25T01:45:15;92698.59;;;10.38;97.43
35888;BME280;21990;42.540;23.496;2023-04-25T01:47:40;92705.16;;;10.40;97.80
35888;BME280;21990;42.540;23.496;2023-04-25T01:50:08;92694.25;;;10.37;97.77
35888;BME280;21990;42.540;23.496;2023-04-25T01:52:33;92695.28;;;10.19;98.86
35888;BME280;21990;42.540;23.496;2023-04-25T01:55:02;92674.19;;;9.91;100.00
35888;BME280;21990;42.540;23.496;2023-04-25T01:57:28;92686.81;;;9.77;100.00
35888;BME280;21990;42.540;23.496;2023-04-25T02:00:03;92672.88;;;9.51;100.00
35888;BME280;21990;42.540;23.496;2023-04-25T02:02:29;92679.16;;;9.57;100.00
35888;BME280;21990;42.540;23.496;2023-04-25T02:04:55;92682.91;;;9.60;100.00
35888;BME280;21990;42.540;23.496;2023-04-25T02:07:21;92672.47;;;9.47;100.00
35888;BME280;21990;42.540;23.496;2023-04-25T02:09:46;92678.03;;;9.60;100.00
35888;BME280;21990;42.540;23.496;2023-04-25T02:12:12;92660.66;;;9.69;100.00
35888;BME280;21990;42.540;23.496;2023-04-25T02:14:37;92660.31;;;9.73;100.00
35888;BME280;21990;42.540;23.496;2023-04-25T02:17:03;92651.91;;;9.52;100.00
35888;BME280;21990;42.540;23.496;2023-04-25T02:19:29;92645.78;;;9.61;100.00
35888;BME280;21990;42.540;23.496;2023-04-25T02:21:54;92645.59;;;9.59;100.00
35888;BME280;21990;42.540;23.496;2023-04-25T02:24:20;92643.13;;;9.56;100.00
35888;BME280;21990;42.540;23.496;2023-04-25T02:26:45;92640.63;;;9.73;100.00
35888;BME280;21990;42.540;23.496;2023-04-25T02:29:12;92629.25;;;9.78;100.00
35888;BME280;21990;42.540;23.496;2023-04-25T02:31:37;92627.78;;;9.85;100.00
35888;BME280;21990;42.540;23.496;2023-04-25T02:34:02;92626.84;;;9.82;100.00
35888;BME280;21990;42.540;23.496;2023-04-25T02:36:28;92637.00;;;9.85;100.00
35888;BME280;21990;42.540;23.496;2023-04-25T02:38:57;92643.25;;;9.91;100.00
35888;BME280;21990;42.540;23.496;2023-04-25T02:41:22;92641.38;;;9.94;100.00
35888;BME280;21990;42.540;23.496;2023-04-25T02:43:48;92633.41;;;9.85;100.00
35888;BME280;21990;42.540;23.496;2023-04-25T02:46:14;92635.00;;;9.73;100.00
35888;BME280;21990;42.540;23.496;2023-04-25T02:48:39;92630.53;;;9.77;100.00
35888;BME280;21990;42.540;23.496;2023-04-25T02:51:05;92633.56;;;9.79;98.26
35888;BME280;21990;42.540;23.496;2023-04-25T02:53:30;92627.75;;;9.57;100.00
35888;BME280;21990;42.540;23.496;2023-04-25T02:55:56;92627.53;;;9.54;99.82
35888;BME280;21990;42.540;23.496;2023-04-25T02:58:23;92620.56;;;9.48;100.00
35888;BME280;21990;42.540;23.496;2023-04-25T03:00:48;92623.31;;;9.40;100.00
35888;BME280;21990;42.540;23.496;2023-04-25T03:03:14;92622.28;;;9.51;100.00
35888;BME280;21990;42.540;23.496;2023-04-25T03:05:43;92631.25;;;9.49;100.00
35888;BME280;21990;42.540;23.496;2023-04-25T03:08:08;92634.97;;;9.44;100.00
35888;BME280;21990;42.540;23.496;2023-04-25T03:10:34;92641.34;;;9.45;100.00
35888;BME280;21990;42.540;23.496;2023-04-25T03:12:59;92640.03;;;9.46;100.00
35888;BME280;21990;42.540;23.496;2023-04-25T03:15:25;92636.69;;;9.47;99.97
35888;BME280;21990;42.540;23.496;2023-04-25T03:17:51;92635.91;;;9.47;100.00
35888;BME280;21990;42.540;23.496;2023-04-25T03:20:16;92631.47;;;9.51;99.76
35888;BME280;21990;42.540;23.496;2023-04-25T03:22:41;92634.28;;;9.51;99.05
35888;BME280;21990;42.540;23.496;2023-04-25T03:25:07;92639.91;;;9.51;98.52
35888;BME280;21990;42.540;23.496;2023-04-25T03:27:33;92632.41;;;9.54;98.34
35888;BME280;21990;42.540;23.496;2023-04-25T03:29:59;92630.09;;;9.45;98.39
35888;BME280;21990;42.540;23.496;2023-04-25T03:32:24;92637.06;;;9.31;99.16
35888;BME280;21990;42.540;23.496;2023-04-25T03:34:50;92631.09;;;9.34;99.66
35888;BME280;21990;42.540;23.496;2023-04-25T03:37:15;92624.78;;;9.21;99.86
35888;BME280;21990;42.540;23.496;2023-04-25T03:39:41;92619.56;;;9.04;100.00
35888;BME280;21990;42.540;23.496;2023-04-25T03:42:06;92617.25;;;9.16;100.00
35888;BME280;21990;42.540;23.496;2023-04-25T03:44:32;92609.91;;;9.13;100.00
35888;BME280;21990;42.540;23.496;2023-04-25T03:46:58;92611.97;;;9.12;100.00
35888;BME280;21990;42.540;23.496;2023-04-25T03:49:25;92621.03;;;9.18;100.00
35888;BME280;21990;42.540;23.496;2023-04-25T03:51:51;92623.69;;;9.24;100.00
35888;BME280;21990;42.540;23.496;2023-04-25T03:54:16;92615.50;;;9.26;100.00
35888;BME280;21990;42.540;23.496;2023-04-25T03:56:43;92626.16;;;9.27;100.00
35888;BME280;21990;42.540;23.496;2023-04-25T03:59:08;92619.09;;;9.34;100.00
35888;BME280;21990;42.540;23.496;2023-04-25T04:01:34;92637.22;;;9.25;100.00
35888;BME280;21990;42.540;23.496;2023-04-25T04:04:00;92631.84;;;9.35;100.00
35888;BME280;21990;42.540;23.496;2023-04-25T04:06:36;92629.00;;;9.48;100.00
35888;BME280;21990;42.540;23.496;2023-04-25T04:09:04;92623.16;;;9.46;100.00
35888;BME280;21990;42.540;23.496;2023-04-25T04:11:35;92628.72;;;9.59;100.00
35888;BME280;21990;42.540;23.496;2023-04-25T04:14:01;92628.91;;;9.61;100.00
35888;BME280;21990;42.540;23.496;2023-04-25T04:16:27;92626.25;;;9.76;100.00
35888;BME280;21990;42.540;23.496;2023-04-25T04:18:52;92625.66;;;9.98;100.00
35888;BME280;21990;42.540;23.496;2023-04-25T04:21:18;92631.38;;;10.34;100.00
35888;BME280;21990;42.540;23.496;2023-04-25T04:23:44;92628.78;;;10.80;100.00
35888;BME280;21990;42.540;23.496;2023-04-25T04:26:09;92630.53;;;10.98;100.00
35888;BME280;21990;42.540;23.496;2023-04-25T04:28:36;92633.81;;;11.25;98.93
35888;BME280;21990;42.540;23.496;2023-04-25T04:31:07;92634.72;;;11.12;96.02
35888;BME280;21990;42.540;23.496;2023-04-25T04:33:34;92636.13;;;10.90;97.08
35888;BME280;21990;42.540;23.496;2023-04-25T04:36:00;92648.34;;;10.85;97.22
35888;BME280;21990;42.540;23.496;2023-04-25T04:38:27;92649.69;;;10.92;98.82
35888;BME280;21990;42.540;23.496;2023-04-25T04:40:52;92636.91;;;10.91;99.05
35888;BME280;21990;42.540;23.496;2023-04-25T04:43:18;92636.72;;;10.89;99.07
35888;BME280;21990;42.540;23.496;2023-04-25T04:45:44;92637.50;;;10.97;99.97
35888;BME280;21990;42.540;23.496;2023-04-25T04:48:09;92639.38;;;11.02;95.29
35888;BME280;21990;42.540;23.496;2023-04-25T04:50:36;92633.22;;;11.11;93.80
35888;BME280;21990;42.540;23.496;2023-04-25T04:53:03;92630.97;;;11.17;94.61
35888;BME280;21990;42.540;23.496;2023-04-25T04:55:29;92640.38;;;11.12;93.29
35888;BME280;21990;42.540;23.496;2023-04-25T04:57:56;92639.25;;;11.23;93.48
35888;BME280;21990;42.540;23.496;2023-04-25T05:00:22;92643.03;;;11.33;96.83
35888;BME280;21990;42.540;23.496;2023-04-25T05:02:47;92638.91;;;11.34;93.27
35888;BME280;21990;42.540;23.496;2023-04-25T05:05:13;92636.66;;;11.40;98.99
35888;BME280;21990;42.540;23.496;2023-04-25T05:07:38;92641.56;;;11.32;94.39
35888;BME280;21990;42.540;23.496;2023-04-25T05:10:04;92636.47;;;11.38;97.30
35888;BME280;21990;42.540;23.496;2023-04-25T05:12:29;92642.69;;;11.44;94.99
35888;BME280;21990;42.540;23.496;2023-04-25T05:14:55;92643.41;;;11.29;97.16
35888;BME280;21990;42.540;23.496;2023-04-25T05:17:20;92637.59;;;11.27;95.43
35888;BME280;21990;42.540;23.496;2023-04-25T05:19:46;92642.69;;;11.44;94.24
35888;BME280;21990;42.540;23.496;2023-04-25T05:22:11;92647.22;;;11.47;99.06
35888;BME280;21990;42.540;23.496;2023-04-25T05:24:37;92650.75;;;11.40;89.80
35888;BME280;21990;42.540;23.496;2023-04-25T05:27:02;92641.97;;;11.51;91.09
35888;BME280;21990;42.540;23.496;2023-04-25T05:29:27;92648.38;;;11.59;95.62
35888;BME280;21990;42.540;23.496;2023-04-25T05:31:53;92643.44;;;11.52;89.87
35888;BME280;21990;42.540;23.496;2023-04-25T05:34:18;92647.97;;;11.48;89.65
35888;BME280;21990;42.540;23.496;2023-04-25T05:36:44;92656.25;;;11.53;89.28
35888;BME280;21990;42.540;23.496;2023-04-25T05:39:13;92652.66;;;11.53;91.66
35888;BME280;21990;42.540;23.496;2023-04-25T05:41:39;92655.31;;;11.58;93.83
35888;BME280;21990;42.540;23.496;2023-04-25T05:44:05;92650.63;;;11.61;92.70
35888;BME280;21990;42.540;23.496;2023-04-25T05:46:30;92658.91;;;11.59;93.31
35888;BME280;21990;42.540;23.496;2023-04-25T05:48:56;92654.75;;;11.67;95.72
35888;BME280;21990;42.540;23.496;2023-04-25T05:51:21;92658.19;;;11.73;96.36
35888;BME280;21990;42.540;23.496;2023-04-25T05:53:46;92646.34;;;11.75;96.24
35888;BME280;21990;42.540;23.496;2023-04-25T05:56:12;92652.94;;;11.77;96.17
35888;BME280;21990;42.540;23.496;2023-04-25T05:58:38;92643.53;;;11.82;97.71
35888;BME280;21990;42.540;23.496;2023-04-25T06:01:03;92639.97;;;11.89;98.04
35888;BME280;21990;42.540;23.496;2023-04-25T06:03:29;92645.59;;;11.74;97.13
35888;BME280;21990;42.540;23.496;2023-04-25T06:05:55;92645.03;;;11.83;97.46
35888;BME280;21990;42.540;23.496;2023-04-25T06:08:20;92642.97;;;11.99;97.61
35888;BME280;21990;42.540;23.496;2023-04-25T06:10:46;92642.78;;;11.97;97.39
35888;BME280;21990;42.540;23.496;2023-04-25T06:13:11;92634.50;;;12.07;98.65
35888;BME280;21990;42.540;23.496;2023-04-25T06:15:36;92641.84;;;12.10;98.27
35888;BME280;21990;42.540;23.496;2023-04-25T06:18:02;92645.41;;;12.18;98.40
35888;BME280;21990;42.540;23.496;2023-04-25T06:20:27;92649.56;;;12.17;99.15
35888;BME280;21990;42.540;23.496;2023-04-25T06:22:53;92638.81;;;12.23;99.23
35888;BME280;21990;42.540;23.496;2023-04-25T06:25:18;92634.28;;;12.27;96.02
35888;BME280;21990;42.540;23.496;2023-04-25T06:27:44;92637.13;;;12.27;91.61
35888;BME280;21990;42.540;23.496;2023-04-25T06:30:09;92650.31;;;12.32;89.31
35888;BME280;21990;42.540;23.496;2023-04-25T06:32:37;92644.06;;;12.34;89.51
35888;BME280;21990;42.540;23.496;2023-04-25T06:35:02;92644.41;;;12.53;93.66
35888;BME280;21990;42.540;23.496;2023-04-25T06:37:28;92643.31;;;12.56;92.81
35888;BME280;21990;42.540;23.496;2023-04-25T06:39:54;92634.22;;;12.65;93.37
35888;BME280;21990;42.540;23.496;2023-04-25T06:42:19;92630.97;;;12.76;91.86
35888;BME280;21990;42.540;23.496;2023-04-25T06:44:45;92626.81;;;12.85;90.19
35888;BME280;21990;42.540;23.496;2023-04-25T06:47:10;92626.06;;;12.84;90.61
35888;BME280;21990;42.540;23.496;2023-04-25T06:49:35;92633.88;;;13.09;92.72
35888;BME280;21990;42.540;23.496;2023-04-25T06:52:02;92627.03;;;13.27;91.13
35888;BME280;21990;42.540;23.496;2023-04-25T06:54:28;92627.41;;;13.63;85.63
35888;BME280;21990;42.540;23.496;2023-04-25T06:56:55;92619.53;;;14.28;89.97
35888;BME280;21990;42.540;23.496;2023-04-25T06:59:20;92625.88;;;14.61;85.07
35888;BME280;21990;42.540;23.496;2023-04-25T07:01:46;92623.13;;;14.71;82.28
35888;BME280;21990;42.540;23.496;2023-04-25T07:04:11;92616.31;;;14.74;81.48
35888;BME280;21990;42.540;23.496;2023-04-25T07:06:38;92628.22;;;14.72;80.87
35888;BME280;21990;42.540;23.496;2023-04-25T07:09:07;92624.56;;;14.62;80.40
35888;BME280;21990;42.540;23.496;2023-04-25T07:11:33;92623.97;;;14.64;82.32
35888;BME280;21990;42.540;23.496;2023-04-25T07:13:59;92625.47;;;14.65;82.10
35888;BME280;21990;42.540;23.496;2023-04-25T07:16:25;92621.38;;;14.58;82.31
35888;BME280;21990;42.540;23.496;2023-04-25T07:18:50;92627.06;;;14.58;79.98
35888;BME280;21990;42.540;23.496;2023-04-25T07:21:15;92627.97;;;14.61;76.62
35888;BME280;21990;42.540;23.496;2023-04-25T07:23:41;92617.38;;;14.61;77.30
35888;BME280;21990;42.540;23.496;2023-04-25T07:26:06;92619.16;;;14.74;76.85
35888;BME280;21990;42.540;23.496;2023-04-25T07:28:32;92630.56;;;15.01;80.41
35888;BME280;21990;42.540;23.496;2023-04-25T07:30:57;92623.25;;;15.42;75.68
35888;BME280;21990;42.540;23.496;2023-04-25T07:33:23;92622.97;;;15.64;74.39
35888;BME280;21990;42.540;23.496;2023-04-25T07:35:48;92628.44;;;15.80;74.47
35888;BME280;21990;42.540;23.496;2023-04-25T07:38:14;92634.31;;;15.91;73.17
35888;BME280;21990;42.540;23.496;2023-04-25T07:40:39;92635.81;;;15.92;71.96
35888;BME280;21990;42.540;23.496;2023-04-25T07:43:04;92642.03;;;16.08;74.49
35888;BME280;21990;42.540;23.496;2023-04-25T07:45:30;92631.63;;;16.20;72.29
35888;BME280;21990;42.540;23.496;2023-04-25T07:47:55;92636.75;;;16.31;72.15
35888;BME280;21990;42.540;23.496;2023-04-25T07:50:21;92641.31;;;16.53;65.16
35888;BME280;21990;42.540;23.496;2023-04-25T07:52:46;92631.06;;;16.87;73.76
35888;BME280;21990;42.540;23.496;2023-04-25T07:55:12;92630.50;;;17.27;70.29
35888;BME280;21990;42.540;23.496;2023-04-25T07:57:37;92627.19;;;17.21;65.95
35888;BME280;21990;42.540;23.496;2023-04-25T08:00:03;92631.09;;;17.06;68.27
35888;BME280;21990;42.540;23.496;2023-04-25T08:02:29;92632.91;;;17.11;68.09
35888;BME280;21990;42.540;23.496;2023-04-25T08:04:55;92624.78;;;17.46;69.84
35888;BME280;21990;42.540;23.496;2023-04-25T08:07:20;92624.34;;;17.69;66.41
35888;BME280;21990;42.540;23.496;2023-04-25T08:09:46;92634.94;;;17.97;67.93
35888;BME280;21990;42.540;23.496;2023-04-25T08:12:11;92637.00;;;18.06;66.47
35888;BME280;21990;42.540;23.496;2023-04-25T08:14:37;92637.22;;;17.79;64.77
35888;BME280;21990;42.540;23.496;2023-04-25T08:17:04;92642.34;;;17.62;67.04
35888;BME280;21990;42.540;23.496;2023-04-25T08:19:30;92652.53;;;17.45;66.76
35888;BME280;21990;42.540;23.496;2023-04-25T08:21:56;92657.19;;;17.31;67.52
35888;BME280;21990;42.540;23.496;2023-04-25T08:24:21;92651.78;;;17.26;66.99
35888;BME280;21990;42.540;23.496;2023-04-25T08:26:47;92651.31;;;17.10;70.49
35888;BME280;21990;42.540;23.496;2023-04-25T08:29:12;92652.22;;;17.03;73.14
35888;BME280;21990;42.540;23.496;2023-04-25T08:31:37;92645.50;;;17.27;71.31
35888;BME280;21990;42.540;23.496;2023-04-25T08:34:03;92636.50;;;17.50;66.00
35888;BME280;21990;42.540;23.496;2023-04-25T08:36:28;92634.69;;;17.45;62.73
35888;BME280;21990;42.540;23.496;2023-04-25T08:38:54;92634.69;;;17.45;60.51
35888;BME280;21990;42.540;23.496;2023-04-25T08:41:20;92626.91;;;17.17;58.50
35888;BME280;21990;42.540;23.496;2023-04-25T08:43:47;92625.25;;;16.94;60.81
35888;BME280;21990;42.540;23.496;2023-04-25T08:46:13;92610.72;;;16.90;61.42
35888;BME280;21990;42.540;23.496;2023-04-25T08:48:42;92611.59;;;16.93;61.34
35888;BME280;21990;42.540;23.496;2023-04-25T08:51:07;92619.25;;;17.00;62.08
35888;BME280;21990;42.540;23.496;2023-04-25T08:53:34;92619.56;;;17.04;61.61
35888;BME280;21990;42.540;23.496;2023-04-25T08:56:00;92626.31;;;17.18;63.44
35888;BME280;21990;42.540;23.496;2023-04-25T08:58:29;92625.25;;;17.23;61.59
35888;BME280;21990;42.540;23.496;2023-04-25T09:00:54;92622.56;;;17.25;61.79
35888;BME280;21990;42.540;23.496;2023-04-25T09:03:20;92629.91;;;17.19;62.62
35888;BME280;21990;42.540;23.496;2023-04-25T09:05:45;92634.25;;;17.20;64.09
35888;BME280;21990;42.540;23.496;2023-04-25T09:08:11;92634.69;;;17.16;62.29
35888;BME280;21990;42.540;23.496;2023-04-25T09:10:37;92642.03;;;17.09;62.07
35888;BME280;21990;42.540;23.496;2023-04-25T09:13:06;92644.25;;;17.01;62.81
35888;BME280;21990;42.540;23.496;2023-04-25T09:15:46;92632.75;;;16.99;64.17
35888;BME280;21990;42.540;23.496;2023-04-25T09:18:12;92631.97;;;17.08;63.38
35888;BME280;21990;42.540;23.496;2023-04-25T09:20:43;92629.16;;;17.37;61.84
35888;BME280;21990;42.540;23.496;2023-04-25T09:23:09;92626.44;;;17.39;60.35
35888;BME280;21990;42.540;23.496;2023-04-25T09:25:35;92626.91;;;17.26;57.46
35888;BME280;21990;42.540;23.496;2023-04-25T09:28:08;92616.25;;;17.46;66.44
35888;BME280;21990;42.540;23.496;2023-04-25T09:30:34;92605.78;;;17.39;60.81
35888;BME280;21990;42.540;23.496;2023-04-25T09:33:06;92595.69;;;17.47;58.95
35888;BME280;21990;42.540;23.496;2023-04-25T09:35:36;92594.69;;;17.33;54.63
35888;BME280;21990;42.540;23.496;2023-04-25T09:38:06;92585.97;;;17.41;56.66
35888;BME280;21990;42.540;23.496;2023-04-25T09:40:32;92574.00;;;17.42;57.09
35888;BME280;21990;42.540;23.496;2023-04-25T09:42:57;92575.03;;;17.28;54.74
35888;BME280;21990;42.540;23.496;2023-04-25T09:45:24;92582.84;;;17.18;53.98
35888;BME280;21990;42.540;23.496;2023-04-25T09:47:49;92576.72;;;17.31;57.70
35888;BME280;21990;42.540;23.496;2023-04-25T09:50:16;92564.50;;;17.69;56.91
35888;BME280;21990;42.540;23.496;2023-04-25T09:52:41;92559.09;;;17.73;54.13
35888;BME280;21990;42.540;23.496;2023-04-25T09:55:07;92566.91;;;17.72;55.73
35888;BME280;21990;42.540;23.496;2023-04-25T09:57:32;92583.72;;;17.68;57.98
35888;BME280;21990;42.540;23.496;2023-04-25T09:59:58;92579.50;;;17.69;58.75
35888;BME280;21990;42.540;23.496;2023-04-25T10:02:25;92576.38;;;17.65;56.78
35888;BME280;21990;42.540;23.496;2023-04-25T10:04:53;92577.56;;;17.52;57.41
35888;BME280;21990;42.540;23.496;2023-04-25T10:07:23;92569.34;;;17.37;56.95
35888;BME280;21990;42.540;23.496;2023-04-25T10:09:54;92571.47;;;17.27;55.75
35888;BME280;21990;42.540;23.496;2023-04-25T10:12:20;92573.72;;;17.19;54.64
35888;BME280;21990;42.540;23.496;2023-04-25T10:14:46;92576.44;;;17.07;55.69
35888;BME280;21990;42.540;23.496;2023-04-25T10:17:11;92581.81;;;17.13;56.31
35888;BME280;21990;42.540;23.496;2023-04-25T10:19:37;92583.31;;;16.95;58.31
35888;BME280;21990;42.540;23.496;2023-04-25T10:24:43;92585.81;;;16.62;60.39
35888;BME280;21990;42.540;23.496;2023-04-25T10:27:09;92587.13;;;16.51;61.38
35888;BME280;21990;42.540;23.496;2023-04-25T10:29:35;92575.75;;;16.42;63.47
35888;BME280;21990;42.540;23.496;2023-04-25T10:32:00;92574.19;;;16.31;61.30
35888;BME280;21990;42.540;23.496;2023-04-25T10:34:40;92571.91;;;16.56;67.59
35888;BME280;21990;42.540;23.496;2023-04-25T10:37:06;92575.22;;;16.72;58.13
35888;BME280;21990;42.540;23.496;2023-04-25T10:39:33;92577.00;;;16.77;58.63
35888;BME280;21990;42.540;23.496;2023-04-25T10:41:59;92580.16;;;16.81;59.27
35888;BME280;21990;42.540;23.496;2023-04-25T10:44:27;92581.94;;;16.86;52.18
35888;BME280;21990;42.540;23.496;2023-04-25T10:46:57;92586.44;;;16.89;56.65
35888;BME280;21990;42.540;23.496;2023-04-25T10:49:30;92588.84;;;16.83;54.66
35888;BME280;21990;42.540;23.496;2023-04-25T10:52:16;92585.22;;;16.64;54.67
35888;BME280;21990;42.540;23.496;2023-04-25T10:57:25;92592.94;;;16.44;55.60
35888;BME280;21990;42.540;23.496;2023-04-25T10:59:51;92595.03;;;16.43;56.88
35888;BME280;21990;42.540;23.496;2023-04-25T11:02:16;92592.03;;;16.41;56.00
35888;BME280;21990;42.540;23.496;2023-04-25T11:04:42;92596.66;;;16.37;57.05
35888;BME280;21990;42.540;23.496;2023-04-25T11:07:10;92590.06;;;16.34;57.73
35888;BME280;21990;42.540;23.496;2023-04-25T11:09:39;92591.56;;;16.35;58.46
35888;BME280;21990;42.540;23.496;2023-04-25T11:12:06;92593.34;;;16.31;57.56
35888;BME280;21990;42.540;23.496;2023-04-25T11:14:32;92593.19;;;16.29;58.54
35888;BME280;21990;42.540;23.496;2023-04-25T11:16:58;92596.94;;;16.31;60.10
35888;BME280;21990;42.540;23.496;2023-04-25T11:19:24;92598.41;;;16.23;63.19
35888;BME280;21990;42.540;23.496;2023-04-25T12:04:24;92579.56;;;16.18;74.52
35888;BME280;21990;42.540;23.496;2023-04-25T17:10:14;92558.22;;;12.84;90.86
35888;BME280;21990;42.540;23.496;2023-04-25T17:12:40;92563.88;;;12.84;90.89
35888;BME280;21990;42.540;23.496;2023-04-25T17:15:05;92576.31;;;12.81;90.96
35888;BME280;21990;42.540;23.496;2023-04-25T17:17:33;92578.03;;;12.77;91.12
35888;BME280;21990;42.540;23.496;2023-04-25T17:20:01;92585.63;;;12.67;91.15
35888;BME280;21990;42.540;23.496;2023-04-25T17:22:29;92581.47;;;12.68;91.64
35888;BME280;21990;42.540;23.496;2023-04-25T17:24:55;92590.16;;;12.55;91.56
35888;BME280;21990;42.540;23.496;2023-04-25T17:27:21;92587.00;;;12.43;92.78
35888;BME280;21990;42.540;23.496;2023-04-25T17:29:46;92589.28;;;12.37;92.82
35888;BME280;21990;42.540;23.496;2023-04-25T17:32:34;92588.91;;;12.33;92.60
35888;BME280;21990;42.540;23.496;2023-04-25T17:36:04;92594.75;;;12.35;91.68
35888;BME280;21990;42.540;23.496;2023-04-25T17:38:33;92598.50;;;12.30;92.36
35888;BME280;21990;42.540;23.496;2023-04-25T17:41:04;92598.53;;;12.15;92.66
35888;BME280;21990;42.540;23.496;2023-04-25T17:43:33;92603.06;;;12.10;92.71
35888;BME280;21990;42.540;23.496;2023-04-25T17:45:59;92616.63;;;11.89;91.60
35888;BME280;21990;42.540;23.496;2023-04-25T17:48:24;92624.13;;;11.79;91.48
35888;BME280;21990;42.540;23.496;2023-04-25T17:50:50;92631.47;;;11.67;92.48
35888;BME280;21990;42.540;23.496;2023-04-25T17:53:16;92636.09;;;11.41;90.36
35888;BME280;21990;42.540;23.496;2023-04-25T17:55:42;92637.59;;;11.35;91.24
35888;BME280;21990;42.540;23.496;2023-04-25T17:58:10;92632.72;;;11.28;92.11
35888;BME280;21990;42.540;23.496;2023-04-25T18:00:36;92638.31;;;11.20;92.19
35888;BME280;21990;42.540;23.496;2023-04-25T18:03:02;92634.34;;;11.16;92.41
35888;BME280;21990;42.540;23.496;2023-04-25T18:05:28;92643.34;;;11.07;93.03
35888;BME280;21990;42.540;23.496;2023-04-25T18:07:53;92635.09;;;11.09;93.44
35888;BME280;21990;42.540;23.496;2023-04-25T18:10:19;92632.06;;;11.07;92.65
35888;BME280;21990;42.540;23.496;2023-04-25T18:12:45;92643.56;;;11.09;92.69
35888;BME280;21990;42.540;23.496;2023-04-25T18:15:11;92647.28;;;11.04;92.74
35888;BME280;21990;42.540;23.496;2023-04-25T18:17:36;92643.88;;;11.05;93.71
35888;BME280;21990;42.540;23.496;2023-04-25T18:20:05;92645.25;;;11.12;94.01
35888;BME280;21990;42.540;23.496;2023-04-25T18:22:32;92644.88;;;11.15;93.90
35888;BME280;21990;42.540;23.496;2023-04-25T18:24:58;92645.63;;;11.16;93.48
35888;BME280;21990;42.540;23.496;2023-04-25T18:27:25;92642.84;;;11.23;93.09
35888;BME280;21990;42.540;23.496;2023-04-25T18:29:50;92649.53;;;11.05;92.22
35888;BME280;21990;42.540;23.496;2023-04-25T18:32:15;92655.78;;;11.11;93.35
35888;BME280;21990;42.540;23.496;2023-04-25T18:34:41;92651.66;;;11.20;93.54
35888;BME280;21990;42.540;23.496;2023-04-25T18:37:10;92647.91;;;11.25;93.11
35888;BME280;21990;42.540;23.496;2023-04-25T18:39:37;92647.75;;;11.30;92.80
35888;BME280;21990;42.540;23.496;2023-04-25T18:42:02;92655.81;;;11.26;92.28
35888;BME280;21990;42.540;23.496;2023-04-25T18:44:28;92647.53;;;11.28;92.28
35888;BME280;21990;42.540;23.496;2023-04-25T18:46:54;92661.47;;;11.34;92.26
35888;BME280;21990;42.540;23.496;2023-04-25T18:49:20;92665.59;;;11.33;92.35
35888;BME280;21990;42.540;23.496;2023-04-25T18:51:46;92663.50;;;11.26;91.94
35888;BME280;21990;42.540;23.496;2023-04-25T18:54:12;92667.63;;;11.17;92.41
35888;BME280;21990;42.540;23.496;2023-04-25T18:56:38;92664.63;;;11.15;92.50
35888;BME280;21990;42.540;23.496;2023-04-25T18:59:03;92661.03;;;11.15;92.63
35888;BME280;21990;42.540;23.496;2023-04-25T19:01:29;92667.81;;;11.12;93.26
35888;BME280;21990;42.540;23.496;2023-04-25T19:03:54;92672.47;;;11.09;93.20
35888;BME280;21990;42.540;23.496;2023-04-25T19:06:26;92666.84;;;11.09;93.82
35888;BME280;21990;42.540;23.496;2023-04-25T19:08:53;92663.06;;;11.07;94.15
35888;BME280;21990;42.540;23.496;2023-04-25T19:11:19;92668.16;;;11.08;93.81